createdAt,value
2019-01-05T00:00:56.760Z,23.30
2019-01-05T00:03:42.700Z,23.40
2019-01-05T00:06:28.644Z,23.40
2019-01-05T00:09:01.513Z,23.50
2019-01-05T00:11:34.372Z,23.60
2019-01-05T00:14:13.231Z,23.60
2019-01-05T00:16:48.788Z,23.70
2019-01-05T00:19:21.629Z,23.80
2019-01-05T00:21:54.176Z,23.80
2019-01-05T00:24:42.344Z,23.80
2019-01-05T00:27:27.157Z,23.90
2019-01-05T00:29:59.636Z,24.00
2019-01-05T00:32:41.672Z,24.10
2019-01-05T00:35:23.673Z,24.10
2019-01-05T00:37:53.632Z,24.20
2019-01-05T00:40:39.739Z,24.30
2019-01-05T00:43:24.999Z,24.30
2019-01-05T00:46:06.999Z,24.40
2019-01-05T00:48:55.240Z,24.50
2019-01-05T00:51:41.059Z,24.50
2019-01-05T00:54:10.963Z,24.50
2019-01-05T00:56:50.064Z,24.60
2019-01-05T00:59:35.228Z,24.60
2019-01-05T01:02:21.312Z,24.70
2019-01-05T01:04:56.896Z,24.70
2019-01-05T01:07:29.719Z,24.80
2019-01-05T01:10:17.151Z,24.90
2019-01-05T01:13:03.396Z,25.00
2019-01-05T01:15:39.228Z,25.10
2019-01-05T01:18:24.135Z,25.20
2019-01-05T01:21:02.733Z,25.30
2019-01-05T01:23:32.595Z,25.50
2019-01-05T01:26:18.510Z,25.50
2019-01-05T01:29:04.740Z,25.60
2019-01-05T01:31:43.892Z,25.70
2019-01-05T01:34:16.478Z,25.70
2019-01-05T01:36:46.367Z,25.80
2019-01-05T01:39:18.243Z,25.90
2019-01-05T01:41:48.208Z,25.90
2019-01-05T01:44:24.138Z,26.00
2019-01-05T01:46:56.820Z,26.10
2019-01-05T01:49:43.419Z,26.20
2019-01-05T01:52:29.292Z,26.30
2019-01-05T01:55:14.283Z,26.40
2019-01-05T01:57:44.162Z,26.40
2019-01-05T02:00:19.954Z,26.50
2019-01-05T02:02:53.060Z,26.60
2019-01-05T02:05:22.932Z,26.70
2019-01-05T02:07:55.931Z,26.70
2019-01-05T02:10:35.104Z,26.80
2019-01-05T02:13:10.697Z,26.90
2019-01-05T02:15:40.588Z,27.00
2019-01-05T02:18:22.805Z,27.10
2019-01-05T02:20:58.646Z,27.10
2019-01-05T02:24:04.711Z,27.20
2019-01-05T02:26:49.241Z,27.20
2019-01-05T02:29:43.236Z,27.40
2019-01-05T02:32:25.281Z,27.40
2019-01-05T02:35:18.956Z,27.40
2019-01-05T02:38:09.655Z,27.50
2019-01-05T02:41:00.234Z,27.60
2019-01-05T02:44:21.329Z,27.60
2019-01-05T02:47:31.657Z,27.60
2019-01-05T02:50:22.319Z,27.80
2019-01-05T02:53:20.577Z,27.80
2019-01-05T02:56:12.760Z,27.80
2019-01-05T02:59:03.946Z,27.80
2019-01-05T03:01:53.587Z,27.80
2019-01-05T03:04:42.936Z,27.90
2019-01-05T03:07:30.249Z,27.90
2019-01-05T03:10:21.107Z,27.90
2019-01-05T03:13:25.709Z,27.90
2019-01-05T03:16:16.459Z,27.90
2019-01-05T03:19:20.925Z,27.90
2019-01-05T03:22:30.868Z,27.80
2019-01-05T03:25:27.961Z,27.80
2019-01-05T03:28:26.152Z,27.90
2019-01-05T03:31:16.962Z,27.80
2019-01-05T03:34:05.848Z,27.80
2019-01-05T03:36:50.887Z,27.80
2019-01-05T03:40:07.793Z,27.80
2019-01-05T03:42:52.837Z,27.80
2019-01-05T03:46:12.456Z,27.70
2019-01-05T03:49:15.348Z,27.70
2019-01-05T03:52:12.851Z,27.60
2019-01-05T03:55:21.861Z,27.60
2019-01-05T03:58:28.633Z,27.60
2019-01-05T04:01:21.368Z,27.60
2019-01-05T04:04:19.489Z,27.60
2019-01-05T04:07:11.672Z,27.60
2019-01-05T04:10:17.444Z,27.50
2019-01-05T04:13:23.119Z,27.50
2019-01-05T04:16:19.668Z,27.40
2019-01-05T04:19:43.507Z,27.40
2019-01-05T04:22:28.679Z,27.40
2019-01-05T04:25:25.331Z,27.40
2019-01-05T04:28:14.996Z,27.30
2019-01-05T04:31:28.241Z,27.20
2019-01-05T04:34:26.549Z,27.20
2019-01-05T04:37:35.008Z,27.20
2019-01-05T04:40:36.643Z,27.20
2019-01-05T04:43:21.483Z,27.00
2019-01-05T04:46:19.887Z,27.10
2019-01-05T04:49:32.744Z,27.00
2019-01-05T04:52:20.420Z,26.90
2019-01-05T04:55:08.192Z,26.90
2019-01-05T04:57:53.141Z,26.90
2019-01-05T05:00:49.203Z,26.90
2019-01-05T05:03:33.957Z,26.80
2019-01-05T05:06:18.848Z,26.80
2019-01-05T05:09:32.157Z,26.70
2019-01-05T05:12:35.200Z,26.80
2019-01-05T05:15:50.283Z,26.70
2019-01-05T05:18:26.153Z,26.60
2019-01-05T05:21:19.782Z,26.60
2019-01-05T05:24:09.618Z,26.60
2019-01-05T05:26:57.301Z,26.50
2019-01-05T05:29:52.663Z,26.50
2019-01-05T05:33:00.368Z,26.50
2019-01-05T05:35:36.470Z,26.50
2019-01-05T05:38:57.156Z,26.40
2019-01-05T05:42:13.706Z,26.40
2019-01-05T05:45:19.625Z,26.30
2019-01-05T05:48:13.741Z,26.20
2019-01-05T05:51:14.622Z,26.20
2019-01-05T05:53:56.560Z,26.20
2019-01-05T05:56:44.524Z,26.20
2019-01-05T05:59:29.332Z,26.10
2019-01-05T06:02:14.461Z,26.10
2019-01-05T06:05:15.693Z,26.00
2019-01-05T06:08:14.448Z,26.00
2019-01-05T06:11:27.806Z,25.90
2019-01-05T06:14:37.768Z,25.90
2019-01-05T06:17:40.131Z,25.90
2019-01-05T06:20:21.738Z,25.90
2019-01-05T06:23:35.050Z,25.80
2019-01-05T06:26:42.458Z,25.80
2019-01-05T06:29:40.933Z,25.70
2019-01-05T06:32:41.780Z,25.70
2019-01-05T06:35:23.854Z,25.60
2019-01-05T06:38:05.366Z,25.60
2019-01-05T06:41:12.783Z,25.60
2019-01-05T06:43:51.480Z,25.60
2019-01-05T06:46:33.214Z,25.50
2019-01-05T06:49:34.600Z,25.50
2019-01-05T06:52:51.118Z,25.50
2019-01-05T06:55:58.227Z,25.40
2019-01-05T06:58:59.586Z,25.40
2019-01-05T07:02:20.717Z,25.40
2019-01-05T07:05:12.897Z,25.30
2019-01-05T07:08:04.812Z,25.30
2019-01-05T07:11:12.514Z,25.30
2019-01-05T07:13:51.180Z,25.20
2019-01-05T07:16:42.104Z,25.20
2019-01-05T07:19:45.216Z,25.10
2019-01-05T07:23:05.069Z,25.10
2019-01-05T07:26:09.293Z,25.10
2019-01-05T07:29:07.815Z,25.10
2019-01-05T07:32:30.083Z,25.00
2019-01-05T07:35:20.412Z,25.00
2019-01-05T07:38:41.260Z,25.00
2019-01-05T07:41:23.239Z,24.90
2019-01-05T07:44:26.496Z,24.90
2019-01-05T07:47:40.910Z,24.80
2019-01-05T07:51:00.354Z,24.80
2019-01-05T07:54:18.171Z,24.80
2019-01-05T07:57:31.859Z,24.80
2019-01-05T08:00:19.804Z,24.70
2019-01-05T08:05:56.141Z,24.70
2019-01-05T08:08:55.909Z,24.70
2019-01-05T08:11:55.769Z,24.60
2019-01-05T08:14:55.301Z,24.60
2019-01-05T08:17:55.485Z,24.60
2019-01-05T08:20:40.718Z,24.60
2019-01-05T08:23:40.336Z,24.60
2019-01-05T08:26:39.773Z,24.60
2019-01-05T08:29:21.864Z,24.60
2019-01-05T08:32:04.980Z,24.50
2019-01-05T08:34:49.736Z,24.50
2019-01-05T08:37:49.260Z,24.50
2019-01-05T08:40:49.204Z,24.40
2019-01-05T08:43:48.953Z,24.40
2019-01-05T08:46:48.537Z,24.40
2019-01-05T08:49:33.348Z,24.40
2019-01-05T08:52:32.968Z,24.30
2019-01-05T08:55:18.321Z,24.30
2019-01-05T09:01:10.014Z,24.30
2019-01-05T09:03:52.602Z,24.30
2019-01-05T09:06:52.395Z,24.20
2019-01-05T09:09:34.294Z,24.30
2019-01-05T09:12:34.785Z,24.40
2019-01-05T09:15:34.270Z,24.50
2019-01-05T09:18:33.918Z,24.70
2019-01-05T09:21:18.780Z,24.80
2019-01-05T09:24:03.790Z,24.90
2019-01-05T09:27:03.693Z,25.00
2019-01-05T09:30:03.111Z,25.10
2019-01-05T09:33:03.015Z,25.20
2019-01-05T09:36:02.464Z,25.30
2019-01-05T09:38:44.757Z,25.40
2019-01-05T09:41:44.386Z,25.40
2019-01-05T09:44:44.133Z,25.50
2019-01-05T09:50:19.564Z,25.50
2019-01-05T09:53:19.300Z,25.50
2019-01-05T09:59:14.720Z,25.50
2019-01-05T10:02:14.494Z,25.50
2019-01-05T10:04:56.668Z,25.50
2019-01-05T10:07:38.600Z,25.50
2019-01-05T10:10:39.220Z,25.50
2019-01-05T10:13:39.252Z,25.50
2019-01-05T10:16:38.749Z,25.60
2019-01-05T10:19:21.084Z,25.70
2019-01-05T10:22:20.492Z,26.00
2019-01-05T10:25:20.190Z,26.60
2019-01-05T10:28:05.468Z,27.00
2019-01-05T10:30:48.003Z,27.40
2019-01-05T10:36:26.736Z,27.90
2019-01-05T10:39:26.411Z,28.20
2019-01-05T10:42:12.273Z,28.30
2019-01-05T10:45:12.864Z,28.60
2019-01-05T10:48:13.165Z,28.70
2019-01-05T10:50:57.943Z,28.80
2019-01-05T10:56:53.106Z,28.90
2019-01-05T10:59:52.785Z,29.00
2019-01-05T11:02:34.843Z,29.20
2019-01-05T11:05:16.876Z,29.20
2019-01-05T11:07:59.145Z,29.30
2019-01-05T11:10:59.475Z,29.10
2019-01-05T11:13:44.945Z,29.10
2019-01-05T11:16:29.773Z,29.20
2019-01-05T11:19:11.696Z,29.30
2019-01-05T11:21:53.968Z,29.40
2019-01-05T11:24:54.153Z,29.50
2019-01-05T11:27:53.843Z,29.40
2019-01-05T11:30:53.644Z,29.30
2019-01-05T11:33:53.329Z,29.50
2019-01-05T11:36:53.238Z,29.40
2019-01-05T11:39:39.122Z,29.30
2019-01-05T11:42:39.361Z,29.40
2019-01-05T11:45:39.844Z,29.20
2019-01-05T11:48:39.645Z,29.00
2019-01-05T11:51:39.373Z,28.90
2019-01-05T11:57:14.966Z,31.00
2019-01-05T12:00:14.481Z,31.40
2019-01-05T12:03:13.959Z,31.30
2019-01-05T12:06:14.428Z,31.30
2019-01-05T12:09:40.800Z,31.30
2019-01-05T12:12:49.318Z,31.20
2019-01-05T12:16:15.821Z,31.30
2019-01-05T12:19:24.330Z,31.30
2019-01-05T12:22:50.624Z,31.20
2019-01-05T12:25:59.492Z,31.10
2019-01-05T12:29:25.846Z,30.80
2019-01-05T12:32:52.153Z,30.70
2019-01-05T12:36:18.537Z,30.50
2019-01-05T12:39:27.040Z,30.40
2019-01-05T12:42:53.352Z,30.30
2019-01-05T12:46:01.818Z,30.10
2019-01-05T12:49:10.321Z,30.10
2019-01-05T12:52:19.322Z,30.00
2019-01-05T12:55:19.001Z,29.80
2019-01-05T12:58:01.125Z,29.80
2019-01-05T13:00:46.672Z,29.50
2019-01-05T13:06:36.361Z,29.90
2019-01-05T13:13:10.794Z,29.90
2019-01-05T13:16:20.157Z,29.90
2019-01-05T13:19:29.125Z,29.70
2019-01-05T13:22:55.431Z,29.50
2019-01-05T13:26:21.705Z,28.70
2019-01-05T13:29:30.461Z,28.10
2019-01-05T13:32:56.762Z,27.50
2019-01-05T13:35:56.253Z,27.10
2019-01-05T13:38:56.366Z,26.70
2019-01-05T13:41:42.096Z,26.40
2019-01-05T13:44:41.505Z,26.40
2019-01-05T13:47:24.024Z,26.30
2019-01-05T13:50:23.501Z,26.10
2019-01-05T13:53:08.693Z,25.90
2019-01-05T13:56:08.833Z,25.80
2019-01-05T13:58:51.465Z,25.70
2019-01-05T14:01:50.953Z,25.70
2019-01-05T14:07:38.048Z,25.90
2019-01-05T14:13:31.558Z,27.10
2019-01-05T14:16:31.126Z,27.20
2019-01-05T14:19:30.949Z,27.40
2019-01-05T14:22:30.975Z,27.30
2019-01-05T14:25:13.537Z,27.30
2019-01-05T14:28:13.145Z,27.20
2019-01-05T14:33:51.687Z,27.20
2019-01-05T14:36:39.202Z,27.00
2019-01-05T14:39:46.080Z,27.00
2019-01-05T14:42:53.027Z,27.00
2019-01-05T14:45:59.905Z,26.90
2019-01-05T14:49:07.102Z,26.80
2019-01-05T14:52:14.413Z,26.70
2019-01-05T14:55:21.549Z,26.60
2019-01-05T14:58:28.404Z,26.60
2019-01-05T15:01:35.289Z,26.60
2019-01-05T15:04:42.187Z,26.50
2019-01-05T15:10:57.889Z,26.20
2019-01-05T15:13:57.382Z,26.20
2019-01-05T15:16:57.561Z,26.10
2019-01-05T15:19:57.310Z,26.00
2019-01-05T15:25:22.308Z,25.90
2019-01-05T15:28:04.365Z,25.80
2019-01-05T15:31:04.041Z,25.70
2019-01-05T15:33:48.912Z,25.70
2019-01-05T15:36:30.717Z,25.60
2019-01-05T15:42:13.348Z,25.50
2019-01-05T15:45:13.128Z,25.50
2019-01-05T15:47:58.383Z,25.40
2019-01-05T15:50:41.239Z,25.30
2019-01-05T15:53:41.738Z,25.30
2019-01-05T15:56:41.552Z,25.20
2019-01-05T15:59:41.141Z,25.10
2019-01-05T16:02:28.594Z,25.10
2019-01-05T16:05:35.475Z,25.00
2019-01-05T16:08:42.320Z,25.00
2019-01-05T16:11:50.480Z,24.90
2019-01-05T16:14:57.356Z,24.80
2019-01-05T16:21:12.640Z,24.80
2019-01-05T16:24:19.524Z,24.70
2019-01-05T16:27:26.452Z,24.60
2019-01-05T16:33:41.724Z,24.50
2019-01-05T16:36:48.601Z,24.50
2019-01-05T16:42:50.261Z,24.40
2019-01-05T16:45:57.526Z,24.40
2019-01-05T16:48:57.377Z,24.40
2019-01-05T16:51:43.020Z,24.30
2019-01-05T16:54:42.929Z,24.20
2019-01-05T16:57:27.467Z,24.20
2019-01-05T17:00:27.493Z,24.10
2019-01-05T17:03:27.151Z,24.10
2019-01-05T17:06:12.520Z,24.00
2019-01-05T17:08:57.691Z,24.00
2019-01-05T17:11:57.557Z,23.90
2019-01-05T17:14:57.481Z,23.80
2019-01-05T17:17:57.526Z,23.70
2019-01-05T17:23:39.760Z,23.60
2019-01-05T17:26:46.635Z,23.60
2019-01-05T17:29:53.500Z,23.60
2019-01-05T17:39:39.127Z,23.30
2019-01-05T17:42:46.061Z,23.40
2019-01-05T17:45:52.919Z,23.30
2019-01-05T17:48:59.875Z,23.30
2019-01-05T17:52:06.784Z,23.20
2019-01-05T17:55:06.861Z,23.10
2019-01-05T17:58:06.386Z,23.10
2019-01-05T18:01:06.086Z,23.10
2019-01-05T18:03:48.276Z,23.00
2019-01-05T18:10:06.351Z,22.90
2019-01-05T18:12:48.631Z,22.80
2019-01-05T18:15:34.746Z,22.80
2019-01-05T18:18:34.811Z,22.80
2019-01-05T18:21:19.363Z,22.80
2019-01-05T18:26:56.353Z,22.60
2019-01-05T18:36:07.249Z,22.50
2019-01-05T18:38:49.753Z,22.50
2019-01-05T18:41:50.063Z,22.60
2019-01-05T18:44:50.350Z,22.60
2019-01-05T18:47:50.731Z,22.60
2019-01-05T18:50:36.200Z,22.60
2019-01-05T18:53:18.974Z,22.50
2019-01-05T18:56:18.859Z,22.50
2019-01-05T19:02:26.873Z,22.40
2019-01-05T19:05:26.979Z,22.40
2019-01-05T19:08:11.573Z,22.40
2019-01-05T19:11:11.248Z,22.30
2019-01-05T19:13:56.276Z,22.30
2019-01-05T19:16:41.245Z,22.30
2019-01-05T19:19:40.792Z,22.20
2019-01-05T19:25:32.864Z,22.20
2019-01-05T19:28:32.429Z,22.20
2019-01-05T19:34:40.184Z,22.10
2019-01-05T19:37:22.112Z,22.10
2019-01-05T19:40:07.093Z,22.00
2019-01-05T19:43:06.546Z,22.00
2019-01-05T19:46:06.466Z,22.00
2019-01-05T19:49:06.005Z,22.00
2019-01-05T19:52:05.465Z,21.90
2019-01-05T19:55:05.204Z,21.90
2019-01-05T19:58:04.729Z,21.90
2019-01-05T20:01:05.076Z,21.80
2019-01-05T20:03:47.533Z,21.80
2019-01-05T20:06:47.885Z,21.80
2019-01-05T20:09:48.092Z,21.80
2019-01-05T20:12:47.560Z,21.70
2019-01-05T20:15:47.716Z,21.70
2019-01-05T20:18:47.544Z,21.70
2019-01-05T20:21:29.704Z,21.70
2019-01-05T20:24:11.939Z,21.70
2019-01-05T20:26:57.188Z,21.60
2019-01-05T20:29:57.457Z,21.60
2019-01-05T20:33:00.556Z,21.60
2019-01-05T20:36:00.275Z,21.60
2019-01-05T20:38:45.396Z,21.60
2019-01-05T20:41:45.583Z,21.60
2019-01-05T20:47:52.057Z,21.60
2019-01-05T20:50:34.146Z,21.60
2019-01-05T20:53:33.642Z,21.60
2019-01-05T20:59:40.949Z,21.60
2019-01-05T21:02:22.809Z,21.70
2019-01-05T21:08:17.227Z,21.70
2019-01-05T21:11:16.660Z,21.70
2019-01-05T21:16:54.882Z,21.80
2019-01-05T21:22:46.936Z,21.90
2019-01-05T21:25:46.828Z,22.00
2019-01-05T21:28:29.038Z,22.00
2019-01-05T21:31:14.451Z,22.00
2019-01-05T21:40:15.409Z,22.20
2019-01-05T21:43:15.393Z,22.20
2019-01-05T21:46:00.625Z,22.20
2019-01-05T21:49:00.701Z,22.30
2019-01-05T21:52:00.957Z,22.30
2019-01-05T21:54:45.661Z,22.40
2019-01-05T21:57:27.744Z,22.40
2019-01-05T22:00:09.973Z,22.40
2019-01-05T22:02:52.056Z,22.40
2019-01-05T22:11:24.208Z,22.50
2019-01-05T22:14:09.353Z,22.60
2019-01-05T22:16:51.582Z,22.60
2019-01-05T22:19:33.408Z,22.60
2019-01-05T22:22:16.048Z,22.60
2019-01-05T22:24:58.818Z,22.60
2019-01-05T22:27:58.374Z,22.60
2019-01-05T22:30:40.372Z,22.60
2019-01-05T22:33:22.193Z,22.60
2019-01-05T22:36:04.065Z,22.70
2019-01-05T22:39:03.792Z,22.70
2019-01-05T22:41:45.688Z,22.70
2019-01-05T22:44:45.152Z,22.80
2019-01-05T22:47:51.993Z,22.80
2019-01-05T22:50:58.886Z,22.80
2019-01-05T22:54:05.718Z,22.90
2019-01-05T23:00:11.417Z,23.00
2019-01-05T23:03:18.280Z,23.00
2019-01-05T23:06:25.153Z,23.10
2019-01-05T23:12:40.444Z,23.20
2019-01-05T23:15:47.288Z,23.20
2019-01-05T23:18:54.149Z,23.30
2019-01-05T23:22:01.016Z,23.30
2019-01-05T23:39:29.337Z,23.70
2019-01-05T23:42:29.045Z,23.80
2019-01-05T23:45:29.085Z,23.80
2019-01-05T23:48:29.241Z,23.90
2019-01-05T23:51:14.848Z,24.00
2019-01-05T23:54:14.581Z,24.10
2019-01-05T23:57:14.388Z,24.10
